Bayport, Minnesota
Current Conditions -  °F | °C
As of 11:11 PM on Saturday 20 Dec 2014 (Local Time) from K21D Reporting Station
Overcast Overcast  
Wind Chill: 26°   Ceiling: 1500
Heat Index: 32°   Visibility: 10mi
Dew Point: 28°   Wind: 7mph
Humidity: 87%   Direction: 150°SSE
Pressure: 30.09"   Gusts: NA
Location:  45.02°N, 92.78°W
Report Text: K21D 210511Z AUTO 15006KT 10SM OVC015 00/M02 A3009 RMK AO2
Loading
Personal Weather Stations






























Interactive Weather Map New forecast layout! Learn more

10-Day Weather Forecast

Advertisements
Track Severe Weather on mobile